ADDS METAR Data INFO
IDs: Format: Raw Decoded Include TAF

Data at: 1454 UTC 11 Dec 2017

KAYS 111435Z AUTO 27005KT 10SM CLR 07/00 A3028 RMK AO2 T00701003
KAYS 111415Z AUTO 27004KT 10SM CLR 06/00 A3028 RMK AO2 T00551005
KAYS 111355Z AUTO 27005KT 10SM CLR 05/M01 A3028 RMK AO2 T00451006
KAYS 111335Z AUTO 00000KT 10SM CLR 03/00 A3028 RMK AO2 T00261002
KAYS 111315Z AUTO 00000KT 10SM CLR 01/M01 A3028 RMK AO2 T00061006
KAYS 111255Z AUTO 00000KT 10SM CLR 00/M02 A3028 RMK AO2 T10041017
KAYS 111235Z AUTO 00000KT 10SM CLR M01/M03 A3028 RMK AO2 T10151029
KAYS 111215Z AUTO 24004KT 10SM CLR M02/M03 A3028 RMK AO2 T10161030
KAYS 111155Z AUTO 24003KT 10SM CLR M02/M03 A3028 RMK AO2 T10161030 10008 21020
KAYS 111135Z AUTO 24003KT 10SM CLR M02/M03 A3027 RMK AO2 T10201034
KAYS 111115Z AUTO 00000KT 10SM CLR M01/M03 A3027 RMK AO2 T10121026
KAYS 111055Z AUTO 24003KT 10SM CLR M01/M02 A3027 RMK AO2 T10111025
KAYS 111035Z AUTO 22003KT 10SM CLR M02/M03 A3027 RMK AO2 T10171031
KAYS 111015Z AUTO 25003KT 10SM CLR M01/M03 A3026 RMK AO2 T10131026
KAYS 110955Z AUTO 22004KT 10SM CLR M01/M03 A3027 RMK AO2 T10141028
KAYS 110935Z AUTO 00000KT 10SM CLR M01/M02 A3027 RMK AO2 T10081022
KAYS 110915Z AUTO 00000KT 10SM CLR M01/M02 A3028 RMK AO2 T10101023
KAYS 110855Z AUTO 00000KT 10SM CLR M01/M03 A3028 RMK AO2 T10141027
KAYS 110835Z AUTO 00000KT 10SM CLR 00/M02 A3029 RMK AO2 T10031017
KAYS 110815Z AUTO 00000KT 10SM CLR 00/M02 A3029 RMK AO2 T10031017
KAYS 110755Z AUTO 00000KT 10SM CLR 00/M01 A3029 RMK AO2 T10011015
KAYS 110735Z AUTO 00000KT 10SM CLR 00/M02 A3029 RMK AO2 T00001016
KAYS 110715Z AUTO 00000KT 10SM CLR 00/M02 A3030 RMK AO2 T00001018
KAYS 110655Z AUTO 00000KT 10SM CLR 00/M02 A3029 RMK AO2 T00001021
KAYS 110635Z AUTO 24003KT 10SM CLR 00/M02 A3030 RMK AO2 T00021022
KAYS 110615Z AUTO 24004KT 10SM CLR 00/M02 A3030 RMK AO2 T00001019
KAYS 110555Z AUTO 24004KT 10SM CLR 00/M02 A3030 RMK AO2 T00001020 10037 20000
KAYS 110535Z AUTO 24004KT 10SM CLR 00/M01 A3030 RMK AO2 T00001012
KAYS 110515Z AUTO 22003KT 10SM CLR 01/M01 A3029 RMK AO2 T00081014
KAYS 110455Z AUTO 28003KT 10SM CLR 02/M02 A3029 RMK AO2 T00171016 401171006
KAYS 110435Z AUTO 26003KT 10SM CLR 03/M01 A3030 RMK AO2 T00251012
KAYS 110415Z AUTO 29003KT 10SM CLR 02/M01 A3030 RMK AO2 T00191013
KAYS 110355Z AUTO 27004KT 10SM CLR 01/M01 A3030 RMK AO2 T00121012
KAYS 110335Z AUTO 24003KT 10SM CLR 01/M01 A3029 RMK AO2 T00061007
KAYS 110315Z AUTO 00000KT 10SM CLR 02/M01 A3029 RMK AO2 T00191009
KAYS 110255Z AUTO 27003KT 10SM CLR 01/M01 A3029 RMK AO2 T00141009
KAYS 110235Z AUTO 00000KT 10SM CLR 01/00 A3029 RMK AO2 T00121005
KAYS 110215Z AUTO 24004KT 10SM CLR 01/00 A3029 RMK AO2 T00130000
KAYS 110155Z AUTO 24004KT 10SM CLR 01/00 A3029 RMK AO2 T00121004
KAYS 110135Z AUTO 26003KT 10SM CLR 02/00 A3028 RMK AO2 T00171001
KAYS 110115Z AUTO 00000KT 10SM CLR 02/00 A3028 RMK AO2 T00200000
KAYS 110055Z AUTO 24003KT 10SM CLR 02/00 A3028 RMK AO2 T00210002
KAYS 110035Z AUTO 00000KT 10SM CLR 03/00 A3028 RMK AO2 T00260000
KAYS 110015Z AUTO 28003KT 10SM CLR 03/00 A3028 RMK AO2 T00301001
KAYS 102355Z AUTO 00000KT 10SM CLR 04/00 A3028 RMK AO2 T00370000 10117 20037
KAYS 102335Z AUTO 00000KT 10SM CLR 04/00 A3027 RMK AO2 T00421001
KAYS 102315Z AUTO 22004KT 10SM CLR 05/00 A3026 RMK AO2 T00501005
KAYS 102255Z AUTO 00000KT 10SM CLR 06/M01 A3026 RMK AO2 T00591009
KAYS 102235Z AUTO 00000KT 10SM CLR 08/M04 A3026 RMK AO2 T00831039
KAYS 102215Z AUTO 29004KT 10SM CLR 09/M06 A3026 RMK AO2 T00891057
KAYS 102155Z AUTO 31005KT 10SM CLR 10/M07 A3025 RMK AO2 T01011070
KAYS 102135Z AUTO 30005KT 10SM CLR 11/M08 A3025 RMK AO2 T01091084
KAYS 102115Z AUTO 31007KT 10SM CLR 11/M08 A3025 RMK AO2 T01131076
KAYS 102055Z AUTO 28008KT 10SM CLR 12/M07 A3025 RMK AO2 T01151074
KAYS 102035Z AUTO 28006KT 10SM CLR 12/M08 A3026 RMK AO2 T01151085
KAYS 102015Z AUTO 27009KT 10SM CLR 12/M09 A3025 RMK AO2 T01171088
KAYS 101955Z AUTO 27007KT 10SM CLR 11/M08 A3025 RMK AO2 T01141082
KAYS 101935Z AUTO 31008KT 270V330 10SM CLR 11/M08 A3025 RMK AO2 T01131083
KAYS 101915Z AUTO 32007KT 10SM CLR 11/M08 A3025 RMK AO2 T01111078
KAYS 101855Z AUTO 25004KT 10SM CLR 10/M06 A3026 RMK AO2 T01031064
KAYS 101835Z AUTO 00000KT 10SM CLR 10/M08 A3027 RMK AO2 T00981076
KAYS 101815Z AUTO 33006KT 10SM CLR 10/M07 A3028 RMK AO2 T00971068
KAYS 101755Z AUTO 30006KT 10SM CLR 10/M06 A3028 RMK AO2 T00961057 10096 21006
KAYS 101735Z AUTO 29006KT 10SM CLR 09/M06 A3029 RMK AO2 T00871060
KAYS 101715Z AUTO 00000KT 10SM CLR 08/M06 A3031 RMK AO2 T00771060
KAYS 101655Z AUTO 33007KT 10SM CLR 07/M05 A3031 RMK AO2 T00731055
KAYS 101635Z AUTO 34006KT 10SM CLR 07/M05 A3031 RMK AO2 T00691053
KAYS 101615Z AUTO 32005KT 10SM CLR 06/M05 A3032 RMK AO2 T00641049
KAYS 101555Z AUTO 33006KT 10SM CLR 06/M05 A3033 RMK AO2 T00561048
KAYS 101535Z AUTO 36007KT 10SM CLR 05/M05 A3033 RMK AO2 T00521055
KAYS 101515Z AUTO 02008KT 10SM CLR 05/M05 A3033 RMK AO2 T00481049
KAYS 101455Z AUTO 35009KT 10SM CLR 04/M04 A3034 RMK AO2 T00441044
KAYS 101435Z AUTO 35008KT 10SM CLR 04/M04 A3033 RMK AO2 T00391036
KAYS 101415Z AUTO 34007KT 10SM CLR 03/M03 A3033 RMK AO2 T00301027
KAYS 101355Z AUTO 34008KT 10SM CLR 02/M02 A3032 RMK AO2 T00221019
KAYS 101335Z AUTO 33006KT 10SM CLR 01/M01 A3032 RMK AO2 T00141015
KAYS 101315Z AUTO 31004KT 10SM CLR 01/M01 A3032 RMK AO2 T00101013
KAYS 101255Z AUTO 33005KT 10SM CLR 00/M01 A3031 RMK AO2 T00011014
KAYS 101235Z AUTO 31003KT 10SM CLR 00/M02 A3031 RMK AO2 T10031020
KAYS 101215Z AUTO 31004KT 10SM CLR M01/M02 A3031 RMK AO2 T10061021
KAYS 101155Z AUTO 34004KT 10SM CLR 00/M02 A3029 RMK AO2 T10011020 10013 21001
KAYS 101135Z AUTO 33007KT 10SM CLR 00/M02 A3029 RMK AO2 T00001019
KAYS 101115Z AUTO 33006KT 10SM CLR 00/M02 A3029 RMK AO2 T00011018
KAYS 101055Z AUTO 33006KT 10SM CLR 00/M02 A3028 RMK AO2 T00041017
KAYS 101035Z AUTO 33008KT 3SM BR CLR 00/M02 A3027 RMK AO2 T00041016
KAYS 101015Z AUTO 31005KT 3SM BR CLR 00/M02 A3026 RMK AO2 T00031017
KAYS 100955Z AUTO 31005KT 10SM CLR 01/M02 A3026 RMK AO2 T00081021
KAYS 100935Z AUTO 31006KT 10SM CLR 01/M02 A3025 RMK AO2 T00061023
KAYS 100915Z AUTO 30007KT 10SM CLR 01/M02 A3024 RMK AO2 T00061025
KAYS 100855Z AUTO 29007KT 10SM CLR 01/M03 A3023 RMK AO2 T00061026
KAYS 100835Z AUTO 30007KT 10SM CLR 01/M02 A3023 RMK AO2 T00101025
KAYS 100815Z AUTO 30007KT 10SM CLR 01/M03 A3022 RMK AO2 T00091026
KAYS 100755Z AUTO 30007KT 10SM CLR 01/M03 A3021 RMK AO2 T00091026
KAYS 100735Z AUTO 30006KT 10SM CLR 01/M03 A3021 RMK AO2 T00111030
KAYS 100715Z AUTO 29006KT 10SM CLR 01/M03 A3020 RMK AO2 T00121030
KAYS 100655Z AUTO 30004KT 10SM CLR 01/M03 A3020 RMK AO2 T00101029
KAYS 100635Z AUTO 29005KT 10SM CLR 01/M03 A3020 RMK AO2 T00111027
KAYS 100615Z AUTO 28005KT 10SM CLR 01/M02 A3020 RMK AO2 T00091022
KAYS 100555Z AUTO 27004KT 10SM CLR 00/M02 A3020 RMK AO2 T00041022 10027 20000
KAYS 100535Z AUTO 27004KT 10SM CLR 00/M02 A3020 RMK AO2 T00011021
KAYS 100515Z AUTO 26003KT 10SM CLR 01/M02 A3020 RMK AO2 T00101022
KAYS 100455Z AUTO 27003KT 10SM CLR 01/M02 A3020 RMK AO2 T00141020 400750012
KAYS 100435Z AUTO 28004KT 10SM CLR 02/M02 A3020 RMK AO2 T00171018
KAYS 100415Z AUTO 28004KT 10SM CLR 02/M02 A3019 RMK AO2 T00221020
KAYS 100355Z AUTO 29004KT 10SM CLR 02/M02 A3018 RMK AO2 T00241019
KAYS 100335Z AUTO 30007KT 10SM CLR 03/M01 A3018 RMK AO2 T00271015
KAYS 100315Z AUTO 30007KT 10SM CLR 02/M01 A3017 RMK AO2 T00231010
KAYS 100255Z AUTO 29006KT 10SM CLR 02/00 A3016 RMK AO2 T00211001